Argyle, Illinois
Current Conditions -  °F | °C
As of 8:54 PM on Friday 28 Nov 2014 (Local Time) from KRFD Reporting Station
Overcast Overcast  
Wind Chill: 25°   Ceiling: 14000
Heat Index: 33°   Visibility: 9mi
Dew Point: 29°   Wind: 9mph
Humidity: 85%   Direction: 160°SSE
Pressure: 29.91"   Gusts: NA
Location:  42.3911°N, 88.9094°W
Report Text: KRFD 290254Z 16008KT 9SM BKN140 BKN170 OVC240 01/M02 A2991 RMK AO2 SLP140 T00061017 58005
Loading
Personal Weather Stations






























Interactive Weather Map New forecast layout! Learn more

10-Day Weather Forecast

Advertisements
Track Severe Weather on mobile